createdAt,value
2022-07-30T00:01:18.329Z,97018.28
2022-07-30T00:03:46.398Z,97015.75
2022-07-30T00:06:15.619Z,97018.59
2022-07-30T00:08:43.543Z,97024.09
2022-07-30T00:11:12.035Z,97019.78
2022-07-30T00:13:39.896Z,97024.50
2022-07-30T00:16:08.096Z,97016.13
2022-07-30T00:18:36.004Z,97014.81
2022-07-30T00:21:05.027Z,97013.06
2022-07-30T00:23:34.953Z,97008.13
2022-07-30T00:26:03.221Z,97013.78
2022-07-30T00:28:31.139Z,97012.19
2022-07-30T00:30:59.001Z,97002.28
2022-07-30T00:33:28.062Z,97010.03
2022-07-30T00:35:56.694Z,97005.16
2022-07-30T00:38:24.707Z,97011.50
2022-07-30T00:40:54.263Z,97011.50
2022-07-30T00:43:22.337Z,97010.97
2022-07-30T00:45:50.209Z,97008.84
2022-07-30T00:48:24.261Z,97012.28
2022-07-30T00:50:52.253Z,97000.28
2022-07-30T00:53:20.204Z,97009.13
2022-07-30T00:55:48.168Z,97004.03
2022-07-30T00:58:17.371Z,97004.75
2022-07-30T01:00:45.394Z,97010.75
2022-07-30T01:03:13.376Z,97011.78
2022-07-30T01:05:41.356Z,97004.75
2022-07-30T01:08:09.562Z,97000.50
2022-07-30T01:10:37.595Z,97006.59
2022-07-30T01:13:06.100Z,96999.78
2022-07-30T01:15:35.703Z,96994.50
2022-07-30T01:18:07.181Z,96998.47
2022-07-30T01:20:38.730Z,96994.81
2022-07-30T01:23:14.122Z,96987.47
2022-07-30T01:25:57.767Z,96990.31
2022-07-30T01:28:30.017Z,96984.22
2022-07-30T01:30:59.737Z,96985.06
2022-07-30T01:33:29.913Z,96983.84
2022-07-30T01:36:01.059Z,96992.81
2022-07-30T01:38:34.999Z,96990.56
2022-07-30T01:41:07.014Z,96989.56
2022-07-30T01:43:36.667Z,96984.91
2022-07-30T01:46:05.870Z,96981.25
2022-07-30T01:48:38.398Z,96984.28
2022-07-30T01:51:07.700Z,96972.34
2022-07-30T01:53:39.676Z,96983.28
2022-07-30T01:56:11.422Z,96990.44
2022-07-30T01:58:42.639Z,96986.38
2022-07-30T02:01:30.805Z,96984.25
2022-07-30T02:04:02.930Z,96986.56
2022-07-30T02:06:35.729Z,96987.56
2022-07-30T02:09:11.225Z,96990.09
2022-07-30T02:12:02.186Z,96969.41
2022-07-30T02:14:35.260Z,96983.56
2022-07-30T02:17:05.489Z,96979.75
2022-07-30T02:19:37.696Z,96978.94
2022-07-30T02:22:14.021Z,96983.03
2022-07-30T02:24:45.042Z,96969.00
2022-07-30T02:27:17.840Z,96972.03
2022-07-30T02:29:48.516Z,96968.47
2022-07-30T02:32:21.738Z,96965.56
2022-07-30T02:34:54.780Z,96970.41
2022-07-30T02:37:41.120Z,96977.69
2022-07-30T02:40:16.563Z,96972.03
2022-07-30T02:42:48.330Z,96980.19
2022-07-30T02:45:21.155Z,96979.00
2022-07-30T02:47:53.705Z,96972.84
2022-07-30T02:50:23.288Z,96964.66
2022-07-30T02:52:52.883Z,96971.91
2022-07-30T02:55:22.416Z,96968.50
2022-07-30T02:57:54.343Z,96969.69
2022-07-30T03:00:24.018Z,96964.22
2022-07-30T03:02:56.730Z,96964.69
2022-07-30T03:05:26.687Z,96965.75
2022-07-30T03:07:57.432Z,96964.69
2022-07-30T03:10:27.461Z,96969.22
2022-07-30T03:12:57.659Z,96965.09
2022-07-30T03:15:26.801Z,96970.03
2022-07-30T03:17:55.713Z,96969.75
2022-07-30T03:20:28.460Z,96977.72
2022-07-30T03:23:00.450Z,96975.50
2022-07-30T03:25:31.911Z,96967.75
2022-07-30T03:28:03.907Z,96973.75
2022-07-30T03:30:34.507Z,96973.13
2022-07-30T03:33:04.683Z,96975.03
2022-07-30T03:35:34.229Z,96986.19
2022-07-30T03:38:03.275Z,96985.66
2022-07-30T03:40:32.218Z,96989.34
2022-07-30T03:43:02.293Z,96991.63
2022-07-30T03:45:31.446Z,96990.75
2022-07-30T03:48:08.153Z,96991.63
2022-07-30T03:50:37.794Z,96988.91
2022-07-30T03:53:06.975Z,96984.03
2022-07-30T03:55:43.178Z,96987.00
2022-07-30T03:58:35.867Z,96988.81
2022-07-30T04:01:06.429Z,96985.53
2022-07-30T04:03:35.192Z,96983.66
2022-07-30T04:06:06.192Z,96980.38
2022-07-30T04:08:34.303Z,96977.22
2022-07-30T04:11:04.013Z,96989.75
2022-07-30T04:13:48.245Z,96979.88
2022-07-30T04:16:39.447Z,96975.03
2022-07-30T04:19:17.779Z,96976.09
2022-07-30T04:21:48.425Z,96965.78
2022-07-30T04:24:19.202Z,96971.22
2022-07-30T04:26:48.746Z,96966.06
2022-07-30T04:29:24.126Z,96968.06
2022-07-30T04:31:55.081Z,96963.97
2022-07-30T04:34:57.329Z,96969.03
2022-07-30T04:37:45.539Z,96969.56
2022-07-30T04:40:14.167Z,96967.97
2022-07-30T04:42:42.175Z,96964.06
2022-07-30T04:45:14.248Z,96959.88
2022-07-30T04:48:08.817Z,96965.22
2022-07-30T04:50:42.108Z,96954.38
2022-07-30T04:53:13.006Z,96968.84
2022-07-30T04:55:48.631Z,96971.78
2022-07-30T04:58:19.741Z,96970.81
2022-07-30T05:00:51.845Z,96972.06
2022-07-30T05:03:26.142Z,96975.44
2022-07-30T05:05:57.729Z,96973.13
2022-07-30T05:08:29.851Z,96973.25
2022-07-30T05:11:01.372Z,96976.59
2022-07-30T05:13:34.609Z,96977.97
2022-07-30T05:16:09.067Z,96981.22
2022-07-30T05:18:37.191Z,96986.19
2022-07-30T05:21:06.261Z,96979.88
2022-07-30T05:23:40.849Z,96986.19
2022-07-30T05:26:27.652Z,96979.97
2022-07-30T05:28:57.338Z,96989.22
2022-07-30T05:31:41.567Z,96990.19
2022-07-30T05:34:10.881Z,96987.13
2022-07-30T05:36:45.476Z,96983.44
2022-07-30T05:39:16.602Z,96986.41
2022-07-30T05:41:53.454Z,96976.59
2022-07-30T05:44:26.616Z,96980.50
2022-07-30T05:46:55.949Z,96985.84
2022-07-30T05:49:24.266Z,96987.44
2022-07-30T05:51:54.599Z,96992.09
2022-07-30T05:54:24.732Z,96999.66
2022-07-30T05:57:07.850Z,97005.31
2022-07-30T05:59:39.092Z,97001.09
2022-07-30T06:02:11.401Z,96997.84
2022-07-30T06:04:55.552Z,97016.38
2022-07-30T06:07:24.679Z,97014.75
2022-07-30T06:09:59.974Z,97016.41
2022-07-30T06:12:29.542Z,97015.72
2022-07-30T06:14:58.110Z,97016.63
2022-07-30T06:17:44.933Z,97025.97
2022-07-30T06:20:35.820Z,97019.66
2022-07-30T06:23:14.127Z,97018.66
2022-07-30T06:25:56.390Z,97019.31
2022-07-30T06:28:40.041Z,97020.81
2022-07-30T06:31:26.477Z,97015.94
2022-07-30T06:33:56.415Z,97023.28
2022-07-30T06:36:26.309Z,97020.19
2022-07-30T06:39:01.948Z,97011.69
2022-07-30T06:42:08.545Z,97013.88
2022-07-30T06:45:02.185Z,97022.22
2022-07-30T06:47:47.497Z,97016.41
2022-07-30T06:50:19.071Z,97019.97
2022-07-30T06:52:47.361Z,97021.91
2022-07-30T06:55:15.602Z,97034.59
2022-07-30T06:57:48.718Z,97028.06
2022-07-30T07:00:36.961Z,97032.63
2022-07-30T07:03:11.974Z,97030.81
2022-07-30T07:05:41.854Z,97023.94
2022-07-30T07:08:09.742Z,97028.25
2022-07-30T07:10:42.722Z,97025.72
2022-07-30T07:13:24.999Z,97032.81
2022-07-30T07:15:53.443Z,97024.06
2022-07-30T07:18:23.708Z,97031.84
2022-07-30T07:20:57.679Z,97020.19
2022-07-30T07:23:25.785Z,97025.22
2022-07-30T07:26:12.697Z,97022.47
2022-07-30T07:28:41.519Z,97017.72
2022-07-30T07:31:10.264Z,97017.91
2022-07-30T07:33:41.882Z,97013.09
2022-07-30T07:36:12.647Z,97007.72
2022-07-30T07:38:40.952Z,97016.44
2022-07-30T07:41:09.214Z,97014.69
2022-07-30T07:43:37.842Z,97006.13
2022-07-30T07:46:06.108Z,97012.06
2022-07-30T07:48:35.630Z,97014.59
2022-07-30T07:51:47.821Z,97021.66
2022-07-30T07:54:21.525Z,97010.69
2022-07-30T07:56:52.990Z,97010.38
2022-07-30T07:59:36.147Z,97016.22
2022-07-30T08:02:12.970Z,97007.78
2022-07-30T08:04:57.300Z,97016.97
2022-07-30T08:07:46.459Z,97009.63
2022-07-30T08:10:50.056Z,97011.81
2022-07-30T08:13:48.597Z,97023.22
2022-07-30T08:16:39.568Z,97019.84
2022-07-30T08:19:43.068Z,97022.16
2022-07-30T08:22:19.500Z,97029.44
2022-07-30T08:24:48.980Z,97024.38
2022-07-30T08:27:18.028Z,97027.31
2022-07-30T08:29:46.214Z,97031.22
2022-07-30T08:32:15.196Z,97025.34
2022-07-30T08:34:44.440Z,97024.25
2022-07-30T08:37:14.027Z,97021.94
2022-07-30T08:39:42.737Z,97027.31
2022-07-30T08:42:15.200Z,97028.59
2022-07-30T08:44:45.580Z,97020.69
2022-07-30T08:47:18.595Z,97023.00
2022-07-30T08:50:16.700Z,97026.88
2022-07-30T08:53:04.528Z,97037.13
2022-07-30T08:55:33.315Z,97029.31
2022-07-30T08:58:03.708Z,97037.75
2022-07-30T09:00:31.911Z,97038.19
2022-07-30T09:03:00.371Z,97032.47
2022-07-30T09:05:28.825Z,97037.97
2022-07-30T09:07:57.054Z,97038.06
2022-07-30T09:10:26.673Z,97034.06
2022-07-30T09:12:55.225Z,97036.81
2022-07-30T09:15:25.760Z,97038.59
2022-07-30T09:17:57.092Z,97034.19
2022-07-30T09:20:29.534Z,97039.75
2022-07-30T09:22:59.738Z,97040.28
2022-07-30T09:25:41.565Z,97039.09
2022-07-30T09:28:33.017Z,97044.41
2022-07-30T09:31:15.531Z,97045.31
2022-07-30T09:34:26.235Z,97047.22
2022-07-30T09:37:18.988Z,97044.50
2022-07-30T09:40:12.807Z,97054.19
2022-07-30T09:43:29.554Z,97052.19
2022-07-30T09:46:10.292Z,97044.81
2022-07-30T09:48:40.692Z,97049.75
2022-07-30T09:51:15.603Z,97056.06
2022-07-30T09:53:59.214Z,97056.38
2022-07-30T09:56:30.831Z,97054.81
2022-07-30T09:59:01.081Z,97062.19
2022-07-30T10:01:49.940Z,97058.81
2022-07-30T10:04:37.394Z,97056.56
2022-07-30T10:07:25.382Z,97046.47
2022-07-30T10:10:01.452Z,97048.69
2022-07-30T10:12:33.717Z,97048.91
2022-07-30T10:15:06.192Z,97060.19
2022-07-30T10:17:38.553Z,97049.97
2022-07-30T10:20:24.227Z,97056.50
2022-07-30T10:23:15.766Z,97060.50
2022-07-30T10:26:04.697Z,97063.03
2022-07-30T10:28:55.005Z,97056.59
2022-07-30T10:31:47.396Z,97050.34
2022-07-30T10:34:14.812Z,97056.88
2022-07-30T10:36:47.311Z,97053.44
2022-07-30T10:39:22.756Z,97058.78
2022-07-30T10:42:07.466Z,97060.25
2022-07-30T10:45:17.948Z,97060.75
2022-07-30T10:47:48.876Z,97051.69
2022-07-30T10:50:22.502Z,97054.56
2022-07-30T10:52:54.118Z,97048.84
2022-07-30T10:55:32.919Z,97050.22
2022-07-30T10:58:07.819Z,97046.44
2022-07-30T11:00:38.567Z,97054.13
2022-07-30T11:03:19.200Z,97057.19
2022-07-30T11:05:49.617Z,97060.53
2022-07-30T11:08:37.014Z,97060.78
2022-07-30T11:11:19.571Z,97061.50
2022-07-30T11:13:55.100Z,97062.00
2022-07-30T11:16:25.011Z,97057.31
2022-07-30T11:22:26.157Z,97056.78
2022-07-30T11:24:56.613Z,97057.13
2022-07-30T11:27:36.691Z,97064.31
2022-07-30T11:30:08.384Z,97061.94
2022-07-30T11:32:37.416Z,97068.44
2022-07-30T11:35:18.094Z,97076.03
2022-07-30T11:38:04.293Z,97082.09
2022-07-30T11:40:35.154Z,97083.88
2022-07-30T11:43:34.753Z,97087.13
2022-07-30T11:46:10.534Z,97082.81
2022-07-30T11:48:40.652Z,97083.34
2022-07-30T11:51:09.855Z,97080.53
2022-07-30T11:53:38.576Z,97080.28
2022-07-30T11:56:09.514Z,97082.91
2022-07-30T11:58:42.511Z,97081.53
2022-07-30T12:01:14.373Z,97082.63
2022-07-30T12:03:44.313Z,97080.72
2022-07-30T12:06:18.301Z,97080.50
2022-07-30T12:08:48.437Z,97091.69
2022-07-30T12:11:18.079Z,97088.09
2022-07-30T12:13:57.146Z,97100.50
2022-07-30T12:16:25.134Z,97102.41
2022-07-30T12:18:54.135Z,97104.41
2022-07-30T12:21:22.551Z,97106.19
2022-07-30T12:23:58.065Z,97108.88
2022-07-30T12:26:30.029Z,97101.97
2022-07-30T12:28:59.622Z,97102.13
2022-07-30T12:31:29.009Z,97102.41
2022-07-30T12:33:59.312Z,97105.38
2022-07-30T12:36:30.964Z,97104.31
2022-07-30T12:38:59.953Z,97112.31
2022-07-30T12:41:54.144Z,97111.78
2022-07-30T12:44:39.108Z,97109.66
2022-07-30T12:47:18.882Z,97117.56
2022-07-30T12:49:49.879Z,97111.50
2022-07-30T12:52:28.699Z,97110.84
2022-07-30T12:54:59.131Z,97119.81
2022-07-30T12:57:28.846Z,97117.38
2022-07-30T13:00:05.942Z,97118.53
2022-07-30T13:02:34.766Z,97121.72
2022-07-30T13:05:10.884Z,97117.28
2022-07-30T13:07:54.308Z,97124.44
2022-07-30T13:10:25.028Z,97129.53
2022-07-30T13:12:58.485Z,97138.69
2022-07-30T13:15:27.174Z,97135.22
2022-07-30T13:17:55.255Z,97138.34
2022-07-30T13:20:23.770Z,97132.31
2022-07-30T13:22:51.776Z,97136.84
2022-07-30T13:25:19.827Z,97133.03
2022-07-30T13:27:48.564Z,97139.03
2022-07-30T13:30:18.217Z,97135.31
2022-07-30T13:32:46.881Z,97145.25
2022-07-30T13:35:16.037Z,97148.59
2022-07-30T13:37:44.107Z,97150.56
2022-07-30T13:40:12.545Z,97145.16
2022-07-30T13:42:40.651Z,97144.50
2022-07-30T13:45:10.074Z,97146.78
2022-07-30T13:47:39.516Z,97154.28
2022-07-30T13:50:08.186Z,97156.75
2022-07-30T13:52:36.158Z,97156.09
2022-07-30T13:55:04.312Z,97152.81
2022-07-30T13:57:32.287Z,97160.50
2022-07-30T14:00:00.345Z,97153.31
2022-07-30T14:02:32.809Z,97160.13
2022-07-30T14:05:06.962Z,97158.44
2022-07-30T14:07:35.276Z,97161.84
2022-07-30T14:10:03.881Z,97162.06
2022-07-30T14:12:31.997Z,97159.03
2022-07-30T14:15:00.047Z,97168.03
2022-07-30T14:17:28.404Z,97165.38
2022-07-30T14:19:56.576Z,97166.38
2022-07-30T14:22:26.053Z,97174.41
2022-07-30T14:24:54.098Z,97175.63
2022-07-30T14:27:22.083Z,97169.06
2022-07-30T14:29:50.493Z,97164.06
2022-07-30T14:32:19.296Z,97160.97
2022-07-30T14:34:49.504Z,97168.28
2022-07-30T14:37:17.821Z,97160.19
2022-07-30T14:39:47.140Z,97159.28
2022-07-30T14:42:15.107Z,97155.91
2022-07-30T14:44:43.223Z,97155.84
2022-07-30T14:47:11.277Z,97156.00
2022-07-30T14:49:39.513Z,97154.59
2022-07-30T14:52:08.064Z,97156.75
2022-07-30T14:54:36.125Z,97162.66
2022-07-30T14:57:08.609Z,97147.91
2022-07-30T14:59:37.030Z,97157.97
2022-07-30T15:02:05.881Z,97157.38
2022-07-30T15:04:38.725Z,97160.13
2022-07-30T15:07:06.854Z,97164.69
2022-07-30T15:09:35.040Z,97170.22
2022-07-30T15:12:08.989Z,97169.50
2022-07-30T15:14:40.296Z,97168.25
2022-07-30T15:17:09.404Z,97174.84
2022-07-30T15:19:37.460Z,97172.72
2022-07-30T15:22:18.268Z,97169.66
2022-07-30T15:24:46.273Z,97169.13
2022-07-30T15:27:14.313Z,97165.38
2022-07-30T15:29:44.533Z,97167.72
2022-07-30T15:32:13.653Z,97165.44
2022-07-30T15:34:42.372Z,97161.66
2022-07-30T15:37:10.399Z,97167.06
2022-07-30T15:39:38.400Z,97168.56
2022-07-30T15:42:06.992Z,97164.16
2022-07-30T15:44:35.554Z,97166.31
2022-07-30T15:47:05.165Z,97170.19
2022-07-30T15:49:33.284Z,97162.47
2022-07-30T15:52:02.030Z,97163.38
2022-07-30T15:54:30.459Z,97165.25
2022-07-30T15:57:01.052Z,97166.28
2022-07-30T15:59:30.419Z,97156.91
2022-07-30T16:01:58.456Z,97157.84
2022-07-30T16:04:31.275Z,97151.81
2022-07-30T16:07:01.065Z,97155.63
2022-07-30T16:09:29.517Z,97153.94
2022-07-30T16:11:58.139Z,97152.28
2022-07-30T16:14:27.386Z,97150.81
2022-07-30T16:16:55.463Z,97151.19
2022-07-30T16:19:23.506Z,97157.28
2022-07-30T16:21:53.354Z,97176.13
2022-07-30T16:24:21.795Z,97163.50
2022-07-30T16:26:50.729Z,97169.81
2022-07-30T16:29:18.994Z,97169.28
2022-07-30T16:31:48.406Z,97176.16
2022-07-30T16:34:17.795Z,97168.78
2022-07-30T16:36:56.515Z,97167.28
2022-07-30T16:39:24.450Z,97171.28
2022-07-30T16:41:52.849Z,97165.34
2022-07-30T16:44:20.861Z,97170.75
2022-07-30T16:46:49.241Z,97174.22
2022-07-30T16:49:17.322Z,97176.41
2022-07-30T16:51:45.622Z,97177.38
2022-07-30T16:54:14.984Z,97174.84
2022-07-30T16:56:43.495Z,97183.03
2022-07-30T16:59:13.780Z,97181.78
2022-07-30T17:01:42.140Z,97185.00
2022-07-30T17:04:10.080Z,97187.81
2022-07-30T17:06:39.983Z,97190.44
2022-07-30T17:09:08.669Z,97182.09
2022-07-30T17:11:47.480Z,97190.09
2022-07-30T17:14:22.196Z,97182.78
2022-07-30T17:16:50.672Z,97185.56
2022-07-30T17:19:18.705Z,97192.69
2022-07-30T17:21:46.728Z,97196.63
2022-07-30T17:24:14.732Z,97187.72
2022-07-30T17:26:44.377Z,97188.63
2022-07-30T17:29:14.715Z,97189.47
2022-07-30T17:31:44.614Z,97182.50
2022-07-30T17:34:15.914Z,97179.56
2022-07-30T17:36:51.697Z,97187.66
2022-07-30T17:40:27.311Z,97193.06
2022-07-30T17:42:12.240Z,97197.16
2022-07-30T17:44:41.149Z,97207.94
2022-07-30T17:47:14.570Z,97206.84
2022-07-30T17:49:44.687Z,97215.81
2022-07-30T17:52:12.742Z,97221.34
2022-07-30T17:54:40.761Z,97222.72
2022-07-30T17:57:09.205Z,97225.84
2022-07-30T17:59:38.931Z,97232.16
2022-07-30T18:02:07.291Z,97221.91
2022-07-30T18:04:36.030Z,97239.50
2022-07-30T18:07:05.031Z,97238.09
2022-07-30T18:09:36.187Z,97232.84
2022-07-30T18:12:08.349Z,97234.06
2022-07-30T18:14:36.556Z,97235.00
2022-07-30T18:17:08.210Z,97234.38
2022-07-30T18:19:39.443Z,97239.41
2022-07-30T18:22:09.338Z,97238.22
2022-07-30T18:24:40.215Z,97241.75
2022-07-30T18:27:08.842Z,97239.03
2022-07-30T18:29:36.836Z,97248.50
2022-07-30T18:32:07.579Z,97244.19
2022-07-30T18:34:36.395Z,97245.66
2022-07-30T18:37:04.679Z,97246.06
2022-07-30T18:39:32.714Z,97240.59
2022-07-30T18:42:00.991Z,97238.50
2022-07-30T18:44:29.351Z,97233.97
2022-07-30T18:46:57.284Z,97241.56
2022-07-30T18:49:36.505Z,97247.03
2022-07-30T18:52:06.130Z,97252.97
2022-07-30T18:54:34.597Z,97249.69
2022-07-30T18:57:02.967Z,97252.34
2022-07-30T18:59:31.054Z,97260.50
2022-07-30T19:02:00.306Z,97253.22
2022-07-30T19:04:31.060Z,97260.78
2022-07-30T19:06:59.075Z,97257.13
2022-07-30T19:09:27.341Z,97257.22
2022-07-30T19:11:55.777Z,97261.94
2022-07-30T19:14:23.703Z,97260.38
2022-07-30T19:16:52.451Z,97267.66
2022-07-30T19:19:20.762Z,97269.50
2022-07-30T19:21:49.969Z,97256.47
2022-07-30T19:24:17.829Z,97261.28
2022-07-30T19:26:45.940Z,97265.78
2022-07-30T19:29:13.851Z,97267.97
2022-07-30T19:31:42.525Z,97277.47
2022-07-30T19:34:11.765Z,97273.91
2022-07-30T19:36:39.868Z,97276.94
2022-07-30T19:39:12.154Z,97275.94
2022-07-30T19:41:44.049Z,97281.25
2022-07-30T19:44:13.652Z,97275.34
2022-07-30T19:46:47.179Z,97279.22
2022-07-30T19:49:17.380Z,97281.69
2022-07-30T19:52:16.898Z,97285.81
2022-07-30T19:54:36.950Z,97282.19
2022-07-30T19:57:05.300Z,97286.44
2022-07-30T19:59:59.344Z,97279.72
2022-07-30T20:02:22.461Z,97274.94
2022-07-30T20:04:50.665Z,97278.13
2022-07-30T20:07:19.227Z,97277.31
2022-07-30T20:09:49.187Z,97281.84
2022-07-30T20:12:17.227Z,97277.72
2022-07-30T20:14:45.125Z,97277.63
2022-07-30T20:17:13.426Z,97281.44
2022-07-30T20:19:47.597Z,97285.31
2022-07-30T20:22:17.083Z,97286.09
2022-07-30T20:24:45.329Z,97275.41
2022-07-30T20:27:36.449Z,97274.88
2022-07-30T20:30:02.726Z,97282.19
2022-07-30T20:32:31.144Z,97281.84
2022-07-30T20:35:00.416Z,97283.13
2022-07-30T20:37:28.968Z,97291.69
2022-07-30T20:39:57.283Z,97294.13
2022-07-30T20:42:26.730Z,97298.09
2022-07-30T20:44:56.909Z,97291.97
2022-07-30T20:47:34.680Z,97287.88
2022-07-30T20:50:09.632Z,97290.38
2022-07-30T20:52:39.219Z,97285.91
2022-07-30T20:55:08.393Z,97293.84
2022-07-30T20:57:56.313Z,97284.50
2022-07-30T21:00:27.105Z,97288.41
2022-07-30T21:02:54.981Z,97276.56
2022-07-30T21:05:23.356Z,97282.56
2022-07-30T21:07:56.452Z,97276.91
2022-07-30T21:10:26.090Z,97286.13
2022-07-30T21:12:58.646Z,97280.91
2022-07-30T21:15:32.921Z,97277.50
2022-07-30T21:18:01.805Z,97283.81
2022-07-30T21:20:30.140Z,97278.91
2022-07-30T21:23:04.595Z,97278.75
2022-07-30T21:25:33.480Z,97273.47
2022-07-30T21:28:03.307Z,97279.09
2022-07-30T21:30:33.016Z,97280.41
2022-07-30T21:33:02.048Z,97281.06
2022-07-30T21:35:31.934Z,97288.53
2022-07-30T21:38:00.286Z,97279.22
2022-07-30T21:40:29.442Z,97293.91
2022-07-30T21:42:57.811Z,97295.09
2022-07-30T21:45:38.144Z,97305.34
2022-07-30T21:48:10.768Z,97292.03
2022-07-30T21:50:39.952Z,97309.28
2022-07-30T21:53:08.155Z,97302.97
2022-07-30T21:55:52.802Z,97302.97
2022-07-30T21:58:26.286Z,97295.88
2022-07-30T22:01:17.217Z,97296.78
2022-07-30T22:06:35.487Z,97302.94
2022-07-30T22:09:08.549Z,97298.63
2022-07-30T22:11:47.178Z,97299.63
2022-07-30T22:14:15.764Z,97293.56
2022-07-30T22:16:46.388Z,97293.38
2022-07-30T22:19:15.228Z,97288.31
2022-07-30T22:21:46.600Z,97293.72
2022-07-30T22:24:31.424Z,97292.03
2022-07-30T22:27:01.658Z,97288.44
2022-07-30T22:29:38.270Z,97293.75
2022-07-30T22:32:08.919Z,97287.38
2022-07-30T22:34:37.876Z,97298.16
2022-07-30T22:37:09.149Z,97291.13
2022-07-30T22:39:50.772Z,97289.44
2022-07-30T22:42:20.987Z,97288.59
2022-07-30T22:44:54.678Z,97292.72
2022-07-30T22:47:54.072Z,97286.28
2022-07-30T22:50:14.802Z,97287.44
2022-07-30T22:55:33.896Z,97287.81
2022-07-30T22:58:01.795Z,97286.72
2022-07-30T23:00:29.725Z,97288.94
2022-07-30T23:02:58.988Z,97286.69
2022-07-30T23:05:27.517Z,97286.63
2022-07-30T23:07:55.483Z,97281.38
2022-07-30T23:10:25.755Z,97280.69
2022-07-30T23:12:30.688Z,97296.25
2022-07-30T23:12:31.756Z,97296.53
2022-07-30T23:12:56.412Z,97272.25
2022-07-30T23:15:24.589Z,97279.69
2022-07-30T23:17:53.140Z,97281.47
2022-07-30T23:20:22.962Z,97280.41
2022-07-30T23:22:51.322Z,97291.84
2022-07-30T23:25:19.182Z,97291.13
2022-07-30T23:27:47.488Z,97288.38
2022-07-30T23:30:15.657Z,97282.94
2022-07-30T23:32:43.895Z,97282.13
2022-07-30T23:35:12.760Z,97281.94
2022-07-30T23:37:48.732Z,97286.09
2022-07-30T23:40:18.370Z,97291.59
2022-07-30T23:42:46.312Z,97284.13
2022-07-30T23:45:14.229Z,97285.75
2022-07-30T23:48:00.994Z,97280.25
2022-07-30T23:50:30.508Z,97276.28
2022-07-30T23:53:00.123Z,97273.91
2022-07-30T23:55:28.117Z,97276.66
2022-07-30T23:57:56.041Z,97261.75
